createdAt,value
2019-05-22T00:00:46.735Z,2.70
2019-05-22T00:05:51.971Z,1.93
2019-05-22T00:10:58.289Z,2.10
2019-05-22T00:16:04.632Z,2.40
2019-05-22T00:21:10.288Z,2.70
2019-05-22T00:26:16.970Z,2.00
2019-05-22T00:31:21.622Z,1.93
2019-05-22T00:36:26.671Z,1.93
2019-05-22T00:41:32.957Z,1.80
2019-05-22T00:46:39.235Z,2.20
2019-05-22T00:51:47.362Z,2.13
2019-05-22T00:56:56.497Z,1.70
2019-05-22T01:02:05.446Z,1.87
2019-05-22T01:07:18.792Z,2.07
2019-05-22T01:12:44.018Z,1.87
2019-05-22T01:17:50.186Z,2.10
2019-05-22T01:22:59.440Z,2.40
2019-05-22T01:28:06.124Z,1.83
2019-05-22T01:33:12.509Z,2.40
2019-05-22T01:38:17.360Z,2.17
2019-05-22T01:43:22.309Z,2.10
2019-05-22T01:48:33.703Z,2.33
2019-05-22T01:53:38.662Z,2.40
2019-05-22T01:58:44.839Z,2.27
2019-05-22T02:03:50.981Z,2.93
2019-05-22T02:09:06.309Z,1.90
2019-05-22T02:14:14.525Z,2.17
2019-05-22T02:19:20.898Z,2.03
2019-05-22T02:24:26.667Z,2.10
2019-05-22T02:29:32.124Z,2.10
2019-05-22T02:34:37.592Z,2.00
2019-05-22T02:39:43.359Z,1.77
2019-05-22T02:44:48.990Z,1.90
2019-05-22T02:49:53.971Z,1.90
2019-05-22T02:54:59.021Z,1.80
2019-05-22T03:00:04.992Z,2.40
2019-05-22T03:05:10.519Z,2.33
2019-05-22T03:10:16.168Z,2.40
2019-05-22T03:15:23.630Z,3.20
2019-05-22T03:20:29.178Z,2.90
2019-05-22T03:25:33.940Z,2.87
2019-05-22T03:30:41.292Z,3.00
2019-05-22T03:35:51.762Z,2.70
2019-05-22T03:40:57.379Z,2.90
2019-05-22T03:46:05.406Z,3.10
2019-05-22T03:51:12.812Z,3.20
2019-05-22T03:56:17.651Z,12.70
2019-05-22T04:01:23.611Z,6.93
2019-05-22T04:06:28.979Z,4.80
2019-05-22T04:11:39.055Z,2.73
2019-05-22T04:16:45.092Z,2.57
2019-05-22T04:21:50.747Z,2.57
2019-05-22T04:26:55.751Z,2.67
2019-05-22T04:32:02.016Z,1.90
2019-05-22T04:37:09.945Z,2.17
2019-05-22T04:42:15.093Z,2.67
2019-05-22T04:47:19.833Z,1.80
2019-05-22T04:52:24.882Z,2.10
2019-05-22T04:57:31.479Z,2.23
2019-05-22T05:02:36.633Z,2.20
2019-05-22T05:07:42.082Z,1.70
2019-05-22T05:12:47.247Z,1.50
2019-05-22T05:17:52.082Z,1.40
2019-05-22T05:22:56.966Z,1.70
2019-05-22T05:28:03.175Z,1.33
2019-05-22T05:33:07.951Z,1.40
2019-05-22T05:38:14.537Z,1.80
2019-05-22T05:43:19.901Z,1.70
2019-05-22T05:48:24.641Z,1.60
2019-05-22T05:53:29.911Z,3.90
2019-05-22T05:58:34.904Z,4.80
2019-05-22T06:03:41.943Z,1.23
2019-05-22T06:08:46.482Z,2.03
2019-05-22T06:13:51.116Z,1.73
2019-05-22T06:18:57.164Z,1.03
2019-05-22T06:24:14.431Z,1.50
2019-05-22T06:29:20.713Z,0.90
2019-05-22T06:34:25.560Z,1.40
2019-05-22T06:39:30.506Z,1.20
2019-05-22T06:44:36.581Z,1.40
2019-05-22T06:49:41.584Z,1.20
2019-05-22T06:54:46.276Z,1.20
2019-05-22T07:00:09.350Z,0.80
2019-05-22T07:04:57.405Z,1.10
2019-05-22T07:10:02.474Z,0.80
2019-05-22T07:15:21.023Z,1.10
2019-05-22T07:20:26.483Z,0.83
2019-05-22T07:25:31.431Z,0.80
2019-05-22T07:30:36.483Z,0.73
2019-05-22T07:35:56.731Z,0.80
2019-05-22T07:40:50.653Z,1.70
2019-05-22T07:45:55.815Z,1.60
2019-05-22T07:51:02.537Z,0.70
2019-05-22T07:56:10.312Z,0.90
2019-05-22T08:01:16.047Z,0.73
2019-05-22T08:06:20.854Z,0.90
2019-05-22T08:11:26.239Z,1.10
2019-05-22T08:16:31.158Z,0.90
2019-05-22T08:21:36.107Z,1.17
2019-05-22T08:26:53.981Z,0.93
2019-05-22T08:31:47.643Z,0.90
2019-05-22T08:36:52.499Z,0.90
2019-05-22T08:41:58.267Z,0.90
2019-05-22T08:47:03.000Z,0.80
2019-05-22T08:52:22.595Z,0.70
2019-05-22T08:57:16.180Z,0.90
2019-05-22T09:02:21.031Z,0.80
2019-05-22T09:07:25.769Z,1.03
2019-05-22T09:12:31.228Z,1.47
2019-05-22T09:17:36.801Z,0.87
2019-05-22T09:22:41.767Z,1.10
2019-05-22T09:27:47.893Z,2.30
2019-05-22T09:33:00.686Z,1.60
2019-05-22T09:38:05.598Z,0.70
2019-05-22T09:43:10.827Z,1.00
2019-05-22T09:48:16.281Z,0.77
2019-05-22T09:53:21.723Z,0.80
2019-05-22T09:58:26.726Z,0.70
2019-05-22T10:03:31.356Z,0.70
2019-05-22T10:08:37.528Z,0.83
2019-05-22T10:13:43.674Z,0.70
2019-05-22T10:18:53.436Z,1.00
2019-05-22T10:23:58.791Z,0.70
2019-05-22T10:29:18.180Z,1.00
2019-05-22T10:34:28.573Z,0.73
2019-05-22T10:39:34.482Z,0.73
2019-05-22T10:44:40.732Z,0.70
2019-05-22T10:49:46.814Z,1.13
2019-05-22T10:54:51.577Z,0.70
2019-05-22T10:59:56.627Z,0.83
2019-05-22T11:05:01.717Z,0.80
2019-05-22T11:10:07.452Z,0.80
2019-05-22T11:15:12.184Z,0.70
2019-05-22T11:20:17.149Z,0.80
2019-05-22T11:25:22.620Z,0.60
2019-05-22T11:30:27.995Z,0.70
2019-05-22T11:35:34.177Z,0.60
2019-05-22T11:40:39.709Z,0.50
2019-05-22T11:45:45.320Z,0.50
2019-05-22T11:50:51.137Z,0.80
2019-05-22T11:55:56.011Z,0.60
2019-05-22T12:01:00.935Z,0.57
2019-05-22T12:06:05.905Z,0.60
2019-05-22T12:11:12.986Z,0.70
2019-05-22T12:16:19.978Z,0.50
2019-05-22T12:21:24.592Z,0.50
2019-05-22T12:26:29.775Z,0.53
2019-05-22T12:31:37.439Z,0.60
2019-05-22T12:36:43.586Z,0.50
2019-05-22T12:41:48.318Z,0.70
2019-05-22T12:46:53.869Z,0.63
2019-05-22T12:51:58.617Z,0.50
2019-05-22T12:57:05.106Z,0.60
2019-05-22T13:02:11.686Z,0.70
2019-05-22T13:07:18.633Z,0.60
2019-05-22T13:12:23.942Z,0.53
2019-05-22T13:17:29.050Z,0.90
2019-05-22T13:22:34.879Z,0.50
2019-05-22T13:27:39.942Z,0.60
2019-05-22T13:32:44.655Z,0.97
2019-05-22T13:37:49.406Z,0.80
2019-05-22T13:42:54.148Z,0.70
2019-05-22T13:47:58.872Z,0.70
2019-05-22T13:53:04.874Z,0.70
2019-05-22T13:58:10.970Z,0.70
2019-05-22T14:03:16.300Z,0.80
2019-05-22T14:08:21.571Z,0.70
2019-05-22T14:13:27.321Z,0.70
2019-05-22T14:18:32.176Z,0.70
2019-05-22T14:23:37.641Z,0.80
2019-05-22T14:28:43.600Z,0.83
2019-05-22T14:33:48.350Z,0.80
2019-05-22T14:38:54.036Z,0.80
2019-05-22T14:43:59.482Z,0.70
2019-05-22T14:49:05.427Z,0.90
2019-05-22T14:54:11.016Z,0.70
2019-05-22T14:59:16.474Z,0.80
2019-05-22T15:04:21.862Z,0.60
2019-05-22T15:09:27.290Z,0.67
2019-05-22T15:14:32.386Z,0.70
2019-05-22T15:19:37.292Z,0.93
2019-05-22T15:24:42.559Z,1.00
2019-05-22T15:29:47.275Z,0.80
2019-05-22T15:34:52.037Z,0.93
2019-05-22T15:39:56.836Z,0.70
2019-05-22T15:45:03.615Z,0.87
2019-05-22T15:50:09.707Z,1.10
2019-05-22T15:55:15.425Z,1.10
2019-05-22T16:00:22.012Z,1.20
2019-05-22T16:05:27.583Z,1.10
2019-05-22T16:10:32.833Z,0.80
2019-05-22T16:15:38.900Z,1.10
2019-05-22T16:20:43.650Z,1.13
2019-05-22T16:25:49.417Z,1.13
2019-05-22T16:30:55.187Z,1.00
2019-05-22T16:36:00.334Z,0.80
2019-05-22T16:41:05.765Z,1.50
2019-05-22T16:46:11.057Z,1.83
2019-05-22T16:51:17.204Z,1.10
2019-05-22T16:56:22.911Z,1.30
2019-05-22T17:01:28.049Z,0.80
2019-05-22T17:06:33.713Z,1.00
2019-05-22T17:11:38.762Z,2.93
2019-05-22T17:16:44.130Z,3.10
2019-05-22T17:21:55.209Z,2.27
2019-05-22T17:27:01.104Z,2.30
2019-05-22T17:32:07.470Z,2.37
2019-05-22T17:37:14.409Z,4.10
2019-05-22T17:42:20.379Z,2.33
2019-05-22T17:47:26.495Z,2.33
2019-05-22T17:52:31.905Z,2.07
2019-05-22T17:57:37.328Z,0.90
2019-05-22T18:02:42.440Z,1.30
2019-05-22T18:07:47.125Z,1.80
2019-05-22T18:12:51.926Z,1.97
2019-05-22T18:17:57.514Z,1.67
2019-05-22T18:23:02.854Z,1.60
2019-05-22T18:28:08.612Z,1.10
2019-05-22T18:33:13.970Z,1.23
2019-05-22T18:38:18.659Z,1.10
2019-05-22T18:43:23.485Z,1.30
2019-05-22T18:48:32.979Z,1.53
2019-05-22T18:53:36.585Z,1.90
2019-05-22T18:58:41.844Z,2.63
2019-05-22T19:03:47.508Z,1.70
2019-05-22T19:08:52.343Z,2.70
2019-05-22T19:13:57.093Z,1.80
2019-05-22T19:19:02.262Z,1.93
2019-05-22T19:24:07.399Z,1.90
2019-05-22T19:29:12.150Z,2.17
2019-05-22T19:34:17.296Z,2.10
2019-05-22T19:39:22.182Z,2.83
2019-05-22T19:44:26.884Z,3.77
2019-05-22T19:49:32.452Z,2.57
2019-05-22T19:54:38.066Z,2.20
2019-05-22T19:59:43.378Z,2.50
2019-05-22T20:04:49.751Z,2.80
2019-05-22T20:09:54.963Z,2.73
2019-05-22T20:14:59.650Z,4.10
2019-05-22T20:20:07.970Z,5.17
2019-05-22T20:25:13.132Z,3.33
2019-05-22T20:30:20.390Z,2.43
2019-05-22T20:35:25.474Z,2.37
2019-05-22T20:40:30.579Z,2.70
2019-05-22T20:45:36.297Z,2.77
2019-05-22T20:50:41.270Z,2.57
2019-05-22T20:55:47.631Z,2.40
2019-05-22T21:00:52.890Z,2.00
2019-05-22T21:05:57.634Z,1.90
2019-05-22T21:11:03.195Z,2.10
2019-05-22T21:16:07.974Z,2.30
2019-05-22T21:21:14.212Z,2.07
2019-05-22T21:26:19.058Z,3.23
2019-05-22T21:31:24.995Z,3.57
2019-05-22T21:36:30.186Z,3.33
2019-05-22T21:41:35.033Z,3.37
2019-05-22T21:46:40.086Z,3.20
2019-05-22T21:51:44.929Z,3.50
2019-05-22T21:56:50.074Z,3.73
2019-05-22T22:01:59.637Z,2.70
2019-05-22T22:07:04.873Z,2.87
2019-05-22T22:12:09.654Z,3.10
2019-05-22T22:17:14.935Z,2.83
2019-05-22T22:22:24.861Z,2.90
2019-05-22T22:27:29.721Z,3.30
2019-05-22T22:32:36.086Z,3.80
2019-05-22T22:37:41.235Z,3.30
2019-05-22T22:42:47.310Z,4.00
2019-05-22T22:47:51.942Z,3.40
2019-05-22T22:52:56.482Z,3.80
2019-05-22T22:58:16.137Z,4.30
2019-05-22T23:03:11.363Z,4.10
2019-05-22T23:08:22.299Z,3.93
2019-05-22T23:13:28.369Z,3.27
2019-05-22T23:18:43.247Z,3.20
2019-05-22T23:23:47.785Z,4.20
2019-05-22T23:28:53.966Z,3.77
2019-05-22T23:33:59.926Z,3.37
2019-05-22T23:39:08.767Z,5.47
2019-05-22T23:44:14.087Z,4.83
2019-05-22T23:49:19.694Z,3.83
2019-05-22T23:54:24.338Z,3.90
2019-05-22T23:59:30.628Z,4.47
